createdAt,value
2023-03-11T00:00:31.933Z,0.70
2023-03-11T00:03:00.838Z,1.20
2023-03-11T00:05:33.828Z,0.80
2023-03-11T00:08:02.440Z,0.83
2023-03-11T00:10:32.380Z,0.90
2023-03-11T00:13:00.861Z,0.90
2023-03-11T00:15:29.501Z,0.90
2023-03-11T00:17:57.557Z,0.90
2023-03-11T00:20:26.687Z,1.00
2023-03-11T00:22:55.162Z,0.80
2023-03-11T00:25:23.790Z,1.00
2023-03-11T00:27:51.731Z,0.83
2023-03-11T00:30:20.046Z,1.20
2023-03-11T00:32:51.849Z,1.17
2023-03-11T00:35:44.245Z,1.00
2023-03-11T00:38:16.613Z,0.90
2023-03-11T00:40:45.355Z,1.13
2023-03-11T00:43:13.338Z,1.20
2023-03-11T00:45:41.204Z,1.40
2023-03-11T00:48:09.643Z,1.30
2023-03-11T00:50:38.130Z,0.93
2023-03-11T00:53:06.350Z,1.00
2023-03-11T00:55:35.552Z,1.00
2023-03-11T00:58:05.319Z,1.70
2023-03-11T01:00:33.175Z,1.30
2023-03-11T01:03:01.021Z,1.10
2023-03-11T01:05:30.897Z,0.97
2023-03-11T01:07:59.015Z,1.20
2023-03-11T01:10:26.987Z,0.90
2023-03-11T01:12:54.971Z,1.20
2023-03-11T01:15:28.419Z,1.20
2023-03-11T01:17:56.266Z,1.37
2023-03-11T01:20:24.149Z,1.20
2023-03-11T01:22:52.131Z,1.17
2023-03-11T01:25:20.799Z,1.10
2023-03-11T01:27:49.227Z,1.10
2023-03-11T01:30:26.301Z,1.10
2023-03-11T01:32:54.568Z,1.00
2023-03-11T01:35:36.598Z,1.13
2023-03-11T01:38:13.579Z,1.07
2023-03-11T01:40:49.577Z,1.30
2023-03-11T01:43:42.265Z,1.10
2023-03-11T01:46:11.880Z,1.33
2023-03-11T01:48:40.087Z,1.10
2023-03-11T01:51:08.058Z,1.00
2023-03-11T01:53:36.083Z,1.10
2023-03-11T01:56:05.244Z,1.10
2023-03-11T01:58:35.812Z,1.10
2023-03-11T02:01:03.808Z,1.20
2023-03-11T02:03:36.600Z,1.07
2023-03-11T02:06:05.542Z,0.87
2023-03-11T02:08:35.391Z,1.20
2023-03-11T02:11:04.535Z,1.13
2023-03-11T02:13:34.961Z,1.30
2023-03-11T02:16:04.041Z,0.97
2023-03-11T02:18:31.848Z,0.80
2023-03-11T02:21:07.244Z,0.73
2023-03-11T02:23:49.300Z,1.07
2023-03-11T02:26:21.324Z,1.00
2023-03-11T02:28:49.291Z,0.93
2023-03-11T02:31:17.429Z,0.90
2023-03-11T02:33:45.481Z,0.80
2023-03-11T02:36:36.705Z,0.90
2023-03-11T02:39:05.083Z,0.90
2023-03-11T02:41:34.393Z,0.87
2023-03-11T02:44:02.433Z,0.90
2023-03-11T02:46:30.408Z,1.00
2023-03-11T02:48:58.292Z,0.83
2023-03-11T02:51:26.190Z,1.00
2023-03-11T02:53:56.362Z,0.80
2023-03-11T02:56:24.251Z,1.00
2023-03-11T02:58:52.070Z,0.80
2023-03-11T03:01:20.016Z,0.90
2023-03-11T03:03:47.971Z,0.77
2023-03-11T03:06:15.895Z,0.80
2023-03-11T03:08:43.767Z,0.80
2023-03-11T03:11:11.642Z,0.90
2023-03-11T03:13:39.520Z,1.00
2023-03-11T03:16:07.633Z,0.87
2023-03-11T03:18:35.542Z,1.00
2023-03-11T03:21:03.403Z,1.00
2023-03-11T03:23:31.277Z,1.00
2023-03-11T03:25:59.855Z,0.93
2023-03-11T03:28:27.657Z,0.70
2023-03-11T03:30:55.924Z,0.97
2023-03-11T03:33:23.767Z,0.70
2023-03-11T03:35:52.424Z,1.13
2023-03-11T03:38:20.408Z,0.90
2023-03-11T03:40:49.094Z,1.00
2023-03-11T03:43:16.920Z,0.83
2023-03-11T03:46:04.462Z,0.97
2023-03-11T03:48:32.427Z,1.00
2023-03-11T03:51:11.388Z,0.90
2023-03-11T03:53:39.382Z,0.70
2023-03-11T03:56:08.313Z,0.87
2023-03-11T03:58:36.182Z,0.70
2023-03-11T04:01:05.334Z,0.80
2023-03-11T04:03:33.413Z,0.77
2023-03-11T04:06:08.512Z,0.70
2023-03-11T04:08:36.331Z,0.80
2023-03-11T04:11:04.289Z,1.00
2023-03-11T04:13:32.235Z,0.60
2023-03-11T04:16:00.284Z,0.83
2023-03-11T04:18:28.379Z,0.80
2023-03-11T04:20:56.346Z,0.80
2023-03-11T04:23:24.215Z,0.90
2023-03-11T04:25:52.435Z,0.77
2023-03-11T04:28:21.480Z,0.80
2023-03-11T04:30:49.348Z,0.80
2023-03-11T04:33:17.261Z,0.70
2023-03-11T04:35:45.094Z,0.90
2023-03-11T04:38:13.135Z,0.63
2023-03-11T04:40:40.947Z,0.90
2023-03-11T04:43:08.793Z,0.80
2023-03-11T04:45:39.119Z,1.03
2023-03-11T04:48:06.984Z,0.63
2023-03-11T04:50:34.906Z,0.90
2023-03-11T04:53:02.727Z,0.50
2023-03-11T04:55:30.567Z,0.60
2023-03-11T04:57:58.332Z,0.80
2023-03-11T05:00:26.303Z,0.83
2023-03-11T05:02:54.162Z,0.73
2023-03-11T05:05:22.287Z,0.90
2023-03-11T05:07:50.326Z,0.70
2023-03-11T05:10:23.501Z,0.77
2023-03-11T05:12:52.548Z,0.70
2023-03-11T05:15:20.543Z,0.70
2023-03-11T05:17:48.433Z,0.77
2023-03-11T05:20:16.608Z,0.70
2023-03-11T05:22:44.485Z,0.80
2023-03-11T05:25:25.611Z,0.63
2023-03-11T05:27:54.044Z,1.00
2023-03-11T05:30:21.959Z,0.63
2023-03-11T05:32:50.302Z,0.70
2023-03-11T05:35:18.389Z,0.93
2023-03-11T05:37:46.768Z,0.97
2023-03-11T05:40:15.165Z,0.90
2023-03-11T05:42:43.112Z,0.90
2023-03-11T05:45:11.539Z,0.83
2023-03-11T05:47:39.461Z,1.20
2023-03-11T05:50:07.991Z,1.00
2023-03-11T05:52:35.915Z,0.60
2023-03-11T05:55:03.781Z,0.70
2023-03-11T05:57:31.708Z,0.90
2023-03-11T05:59:59.473Z,1.03
2023-03-11T06:02:27.337Z,0.80
2023-03-11T06:04:55.308Z,0.70
2023-03-11T06:07:23.207Z,0.60
2023-03-11T06:09:51.691Z,0.90
2023-03-11T06:12:19.489Z,0.93
2023-03-11T06:14:47.440Z,0.70
2023-03-11T06:17:15.280Z,0.57
2023-03-11T06:19:43.126Z,0.77
2023-03-11T06:22:10.962Z,0.97
2023-03-11T06:24:38.894Z,0.80
2023-03-11T06:27:06.726Z,0.77
2023-03-11T06:29:34.622Z,0.67
2023-03-11T06:32:02.376Z,0.50
2023-03-11T06:34:30.308Z,0.70
2023-03-11T06:36:58.595Z,0.70
2023-03-11T06:39:26.551Z,0.70
2023-03-11T06:41:54.443Z,0.63
2023-03-11T06:44:22.296Z,1.83
2023-03-11T06:46:50.235Z,0.70
2023-03-11T06:49:18.133Z,0.50
2023-03-11T06:51:45.990Z,0.77
2023-03-11T06:54:14.002Z,0.80
2023-03-11T06:56:41.765Z,0.70
2023-03-11T06:59:09.715Z,0.60
2023-03-11T07:01:37.863Z,0.60
2023-03-11T07:04:05.904Z,0.53
2023-03-11T07:06:33.731Z,0.70
2023-03-11T07:09:01.714Z,0.60
2023-03-11T07:11:29.597Z,0.60
2023-03-11T07:13:57.447Z,0.40
2023-03-11T07:16:27.289Z,0.60
2023-03-11T07:18:57.397Z,0.40
2023-03-11T07:21:25.342Z,0.80
2023-03-11T07:23:56.895Z,0.60
2023-03-11T07:26:25.196Z,0.67
2023-03-11T07:28:53.973Z,0.77
2023-03-11T07:31:42.641Z,0.60
2023-03-11T07:34:13.046Z,0.60
2023-03-11T07:36:41.937Z,0.43
2023-03-11T07:39:11.872Z,0.40
2023-03-11T07:41:39.681Z,0.40
2023-03-11T07:44:09.838Z,0.53
2023-03-11T07:46:37.727Z,0.50
2023-03-11T07:49:05.658Z,0.33
2023-03-11T07:51:34.717Z,0.37
2023-03-11T07:54:06.037Z,0.50
2023-03-11T07:56:34.990Z,0.60
2023-03-11T07:59:03.628Z,0.30
2023-03-11T08:01:37.332Z,0.50
2023-03-11T08:04:06.268Z,0.23
2023-03-11T08:06:34.872Z,0.60
2023-03-11T08:09:05.125Z,0.57
2023-03-11T08:11:33.064Z,0.60
2023-03-11T08:14:01.046Z,0.67
2023-03-11T08:16:29.117Z,0.87
2023-03-11T08:18:57.170Z,0.50
2023-03-11T08:21:26.764Z,0.50
2023-03-11T08:23:55.600Z,0.40
2023-03-11T08:26:23.526Z,0.40
2023-03-11T08:28:51.360Z,0.43
2023-03-11T08:31:25.303Z,0.30
2023-03-11T08:33:54.618Z,0.40
2023-03-11T08:36:22.699Z,0.50
2023-03-11T08:38:50.751Z,0.43
2023-03-11T08:41:18.716Z,0.53
2023-03-11T08:43:46.814Z,0.60
2023-03-11T08:46:25.461Z,0.33
2023-03-11T08:48:53.876Z,0.40
2023-03-11T08:51:21.775Z,0.30
2023-03-11T08:53:49.697Z,0.30
2023-03-11T08:56:17.915Z,0.47
2023-03-11T08:58:45.986Z,0.40
2023-03-11T09:01:14.439Z,0.53
2023-03-11T09:03:42.488Z,0.43
2023-03-11T09:06:12.681Z,0.40
2023-03-11T09:08:40.657Z,0.43
2023-03-11T09:11:09.598Z,0.50
2023-03-11T09:13:37.710Z,0.37
2023-03-11T09:16:07.131Z,0.50
2023-03-11T09:18:35.048Z,0.33
2023-03-11T09:21:03.162Z,0.40
2023-03-11T09:23:33.067Z,0.40
2023-03-11T09:26:01.040Z,0.20
2023-03-11T09:28:29.346Z,0.50
2023-03-11T09:30:57.791Z,0.50
2023-03-11T09:33:29.515Z,0.43
2023-03-11T09:35:58.575Z,0.33
2023-03-11T09:38:26.530Z,0.30
2023-03-11T09:41:20.687Z,0.40
2023-03-11T09:44:03.698Z,0.50
2023-03-11T09:46:43.770Z,0.90
2023-03-11T09:49:17.974Z,0.80
2023-03-11T09:51:49.060Z,0.60
2023-03-11T09:54:17.160Z,0.57
2023-03-11T09:56:45.175Z,0.73
2023-03-11T09:59:22.570Z,0.57
2023-03-11T10:01:50.581Z,0.40
2023-03-11T10:04:21.617Z,0.70
2023-03-11T10:06:49.674Z,0.60
2023-03-11T10:09:17.509Z,0.60
2023-03-11T10:12:19.535Z,0.50
2023-03-11T10:14:54.326Z,1.33
2023-03-11T10:17:25.258Z,0.60
2023-03-11T10:20:09.597Z,0.50
2023-03-11T10:22:53.010Z,0.70
2023-03-11T10:25:31.387Z,0.70
2023-03-11T10:28:18.813Z,0.40
2023-03-11T10:30:57.996Z,0.50
2023-03-11T10:33:47.751Z,0.60
2023-03-11T10:36:20.377Z,0.67
2023-03-11T10:38:49.522Z,0.63
2023-03-11T10:41:32.288Z,0.60
2023-03-11T10:47:05.478Z,0.67
2023-03-11T10:49:33.558Z,0.80
2023-03-11T10:52:01.422Z,0.67
2023-03-11T10:54:30.429Z,0.50
2023-03-11T10:57:00.915Z,0.30
2023-03-11T10:59:34.050Z,0.50
2023-03-11T11:02:28.043Z,0.50
2023-03-11T11:05:04.979Z,0.70
2023-03-11T11:07:37.528Z,0.60
2023-03-11T11:10:25.601Z,0.50
2023-03-11T11:13:00.078Z,0.80
2023-03-11T11:15:32.094Z,0.70
2023-03-11T11:18:08.693Z,0.50
2023-03-11T11:20:36.660Z,0.70
2023-03-11T11:23:05.059Z,0.60
2023-03-11T11:25:40.465Z,1.03
2023-03-11T11:28:22.007Z,0.50
2023-03-11T11:31:01.102Z,0.80
2023-03-11T11:33:33.814Z,0.67
2023-03-11T11:36:04.402Z,0.60
2023-03-11T11:38:33.474Z,0.93
2023-03-11T11:41:04.011Z,0.93
2023-03-11T11:43:50.191Z,0.80
2023-03-11T11:46:31.535Z,0.90
2023-03-11T11:49:19.500Z,0.70
2023-03-11T11:51:52.022Z,0.93
2023-03-11T11:54:41.874Z,0.87
2023-03-11T11:57:16.378Z,0.90
2023-03-11T11:59:44.988Z,0.83
2023-03-11T12:02:32.640Z,0.60
2023-03-11T12:05:37.271Z,0.77
2023-03-11T12:08:11.364Z,0.70
2023-03-11T12:10:53.897Z,1.10
2023-03-11T12:13:45.016Z,1.30
2023-03-11T12:16:36.836Z,0.80
2023-03-11T12:19:11.595Z,0.87
2023-03-11T12:21:39.418Z,1.10
2023-03-11T12:24:36.500Z,1.00
2023-03-11T12:27:08.626Z,0.70
2023-03-11T12:29:43.238Z,0.70
2023-03-11T12:32:12.252Z,0.50
2023-03-11T12:34:40.252Z,0.60
2023-03-11T12:37:14.781Z,0.80
2023-03-11T12:39:42.779Z,0.70
2023-03-11T12:42:27.767Z,0.70
2023-03-11T12:44:56.126Z,0.87
2023-03-11T12:47:30.381Z,1.00
2023-03-11T12:50:36.647Z,1.30
2023-03-11T12:53:05.079Z,0.93
2023-03-11T12:55:34.926Z,0.90
2023-03-11T12:58:33.198Z,0.80
2023-03-11T13:01:11.994Z,0.90
2023-03-11T13:03:49.168Z,0.90
2023-03-11T13:06:27.080Z,1.10
2023-03-11T13:08:58.385Z,1.10
2023-03-11T13:11:35.484Z,1.10
2023-03-11T13:14:35.523Z,1.07
2023-03-11T13:17:26.837Z,1.10
2023-03-11T13:19:58.653Z,1.00
2023-03-11T13:22:59.202Z,1.60
2023-03-11T13:25:28.030Z,1.50
2023-03-11T13:27:59.956Z,1.57
2023-03-11T13:30:27.830Z,1.30
2023-03-11T13:33:18.479Z,1.57
2023-03-11T13:36:03.975Z,1.37
2023-03-11T13:38:41.212Z,1.30
2023-03-11T13:41:32.996Z,1.20
2023-03-11T13:44:07.505Z,1.10
2023-03-11T13:46:39.611Z,1.30
2023-03-11T13:49:25.504Z,1.90
2023-03-11T13:51:53.321Z,1.63
2023-03-11T13:54:49.828Z,1.33
2023-03-11T13:57:25.382Z,1.50
2023-03-11T13:59:55.214Z,0.90
2023-03-11T14:02:27.886Z,1.30
2023-03-11T14:04:59.369Z,1.27
2023-03-11T14:07:32.839Z,1.20
2023-03-11T14:10:13.587Z,1.27
2023-03-11T14:12:41.397Z,1.10
2023-03-11T14:15:09.952Z,0.90
2023-03-11T14:17:37.867Z,1.00
2023-03-11T14:20:18.760Z,1.13
2023-03-11T14:22:48.078Z,0.90
2023-03-11T14:25:29.512Z,1.43
2023-03-11T14:27:59.097Z,1.10
2023-03-11T14:30:29.112Z,1.20
2023-03-11T14:33:03.540Z,0.90
2023-03-11T14:35:32.756Z,0.97
2023-03-11T14:38:01.196Z,0.80
2023-03-11T14:40:37.856Z,0.60
2023-03-11T14:43:07.591Z,0.57
2023-03-11T14:45:38.523Z,0.40
2023-03-11T14:48:30.939Z,0.30
2023-03-11T14:51:00.095Z,0.70
2023-03-11T14:53:28.798Z,0.53
2023-03-11T14:56:08.064Z,1.20
2023-03-11T14:58:37.031Z,1.37
2023-03-11T15:01:11.046Z,1.20
2023-03-11T15:03:41.101Z,1.00
2023-03-11T15:06:15.752Z,0.97
2023-03-11T15:08:53.816Z,1.10
2023-03-11T15:11:26.507Z,1.03
2023-03-11T15:13:54.468Z,1.20
2023-03-11T15:16:42.791Z,1.00
2023-03-11T15:19:29.008Z,0.90
2023-03-11T15:22:07.116Z,1.20
2023-03-11T15:24:35.153Z,1.20
2023-03-11T15:27:07.924Z,1.30
2023-03-11T15:29:36.383Z,1.50
2023-03-11T15:32:27.007Z,1.20
2023-03-11T15:35:11.811Z,1.40
2023-03-11T15:37:40.397Z,1.50
2023-03-11T15:40:35.272Z,1.20
2023-03-11T15:43:16.290Z,1.37
2023-03-11T15:45:44.760Z,1.67
2023-03-11T15:48:13.367Z,1.80
2023-03-11T15:50:57.986Z,1.70
2023-03-11T15:53:26.567Z,1.53
2023-03-11T15:55:55.756Z,1.43
2023-03-11T15:58:23.720Z,1.60
2023-03-11T16:00:53.761Z,1.50
2023-03-11T16:03:21.694Z,1.53
2023-03-11T16:05:49.734Z,1.80
2023-03-11T16:08:17.679Z,1.80
2023-03-11T16:10:45.561Z,1.77
2023-03-11T16:13:14.459Z,1.73
2023-03-11T16:15:43.352Z,1.60
2023-03-11T16:18:11.352Z,1.70
2023-03-11T16:20:51.724Z,2.03
2023-03-11T16:23:21.708Z,2.20
2023-03-11T16:25:49.754Z,1.90
2023-03-11T16:28:18.019Z,1.73
2023-03-11T16:30:45.992Z,2.00
2023-03-11T16:33:14.014Z,1.90
2023-03-11T16:35:42.041Z,1.87
2023-03-11T16:38:10.045Z,1.97
2023-03-11T16:40:38.203Z,1.83
2023-03-11T16:43:13.900Z,1.80
2023-03-11T16:45:41.850Z,1.97
2023-03-11T16:48:09.853Z,1.80
2023-03-11T16:50:37.863Z,2.00
2023-03-11T16:53:06.247Z,2.03
2023-03-11T16:55:34.277Z,2.00
2023-03-11T16:58:02.155Z,2.00
2023-03-11T17:00:30.334Z,2.20
2023-03-11T17:02:58.204Z,2.20
2023-03-11T17:05:26.189Z,2.23
2023-03-11T17:07:55.859Z,2.13
2023-03-11T17:10:25.774Z,2.10
2023-03-11T17:12:53.828Z,2.50
2023-03-11T17:15:22.003Z,2.57
2023-03-11T17:17:51.012Z,2.17
2023-03-11T17:20:21.488Z,2.83
2023-03-11T17:22:49.807Z,2.77
2023-03-11T17:25:17.910Z,2.60
2023-03-11T17:27:45.798Z,2.50
2023-03-11T17:30:19.387Z,2.60
2023-03-11T17:32:52.468Z,2.60
2023-03-11T17:35:20.589Z,2.73
2023-03-11T17:37:48.805Z,3.33
2023-03-11T17:40:21.208Z,2.63
2023-03-11T17:42:49.106Z,2.60
2023-03-11T17:45:17.168Z,3.27
2023-03-11T17:47:45.348Z,3.10
2023-03-11T17:50:13.910Z,3.47
2023-03-11T17:52:42.029Z,3.00
2023-03-11T17:55:10.664Z,3.00
2023-03-11T17:57:45.601Z,2.90
2023-03-11T18:00:15.931Z,2.57
2023-03-11T18:02:43.963Z,2.63
2023-03-11T18:05:11.811Z,2.93
2023-03-11T18:07:40.337Z,2.70
2023-03-11T18:10:08.590Z,3.00
2023-03-11T18:12:36.510Z,2.87
2023-03-11T18:15:07.395Z,2.27
2023-03-11T18:17:38.300Z,2.57
2023-03-11T18:20:07.039Z,2.57
2023-03-11T18:22:35.650Z,3.00
2023-03-11T18:25:06.552Z,3.00
2023-03-11T18:27:34.633Z,3.33
2023-03-11T18:30:03.201Z,3.07
2023-03-11T18:32:32.030Z,3.13
2023-03-11T18:34:59.970Z,3.60
2023-03-11T18:37:28.592Z,3.37
2023-03-11T18:39:56.608Z,3.60
2023-03-11T18:42:24.753Z,3.67
2023-03-11T18:44:52.784Z,4.00
2023-03-11T18:47:21.247Z,3.23
2023-03-11T18:49:49.325Z,3.97
2023-03-11T18:52:17.259Z,3.97
2023-03-11T18:54:46.186Z,4.33
2023-03-11T18:57:14.279Z,3.70
2023-03-11T18:59:42.229Z,3.20
2023-03-11T19:02:11.654Z,4.27
2023-03-11T19:04:39.671Z,4.30
2023-03-11T19:07:08.145Z,3.60
2023-03-11T19:09:36.151Z,3.97
2023-03-11T19:12:04.125Z,3.87
2023-03-11T19:14:32.020Z,3.97
2023-03-11T19:17:00.364Z,4.77
2023-03-11T19:19:28.590Z,4.20
2023-03-11T19:21:56.639Z,4.63
2023-03-11T19:24:24.640Z,4.47
2023-03-11T19:26:52.636Z,4.10
2023-03-11T19:29:21.234Z,3.30
2023-03-11T19:31:49.289Z,3.90
2023-03-11T19:34:17.644Z,3.53
2023-03-11T19:36:47.964Z,2.73
2023-03-11T19:42:15.340Z,3.07
2023-03-11T19:44:43.309Z,3.17
2023-03-11T19:47:11.495Z,3.50
2023-03-11T19:49:39.576Z,3.40
2023-03-11T19:52:10.902Z,3.07
2023-03-11T19:54:39.049Z,3.50
2023-03-11T19:57:07.107Z,3.17
2023-03-11T19:59:34.965Z,3.10
2023-03-11T20:02:04.340Z,3.20
2023-03-11T20:04:32.458Z,2.57
2023-03-11T20:07:00.756Z,2.43
2023-03-11T20:09:28.752Z,2.63
2023-03-11T20:11:57.574Z,2.60
2023-03-11T20:14:25.585Z,2.60
2023-03-11T20:16:53.867Z,2.93
2023-03-11T20:19:22.073Z,2.73
2023-03-11T20:21:50.266Z,3.27
2023-03-11T20:24:18.237Z,2.87
2023-03-11T20:26:46.318Z,2.77
2023-03-11T20:29:14.415Z,2.90
2023-03-11T20:31:42.898Z,3.27
2023-03-11T20:34:11.102Z,3.40
2023-03-11T20:36:39.271Z,3.10
2023-03-11T20:39:10.262Z,3.47
2023-03-11T20:41:39.716Z,3.07
2023-03-11T20:44:08.602Z,3.60
2023-03-11T20:46:36.817Z,3.50
2023-03-11T20:49:04.865Z,3.23
2023-03-11T20:51:32.714Z,3.33
2023-03-11T20:54:00.733Z,3.60
2023-03-11T20:56:28.787Z,3.53
2023-03-11T20:58:57.338Z,3.67
2023-03-11T21:01:27.379Z,3.50
2023-03-11T21:03:56.566Z,3.70
2023-03-11T21:06:26.380Z,4.03
2023-03-11T21:08:55.458Z,4.10
2023-03-11T21:11:24.072Z,4.07
2023-03-11T21:13:52.303Z,4.93
2023-03-11T21:16:20.452Z,4.70
2023-03-11T21:18:49.541Z,4.40
2023-03-11T21:21:18.215Z,4.13
2023-03-11T21:23:47.811Z,4.30
2023-03-11T21:26:16.711Z,4.10
2023-03-11T21:28:47.689Z,4.27
2023-03-11T21:31:20.564Z,4.10
2023-03-11T21:33:48.830Z,4.67
2023-03-11T21:36:17.444Z,4.83
2023-03-11T21:38:45.623Z,5.07
2023-03-11T21:41:18.559Z,5.43
2023-03-11T21:43:46.910Z,4.77
2023-03-11T21:46:17.296Z,5.07
2023-03-11T21:48:45.544Z,4.33
2023-03-11T21:51:13.977Z,4.33
2023-03-11T21:53:43.193Z,4.27
2023-03-11T21:56:11.458Z,4.03
2023-03-11T21:58:40.064Z,4.60
2023-03-11T22:01:08.796Z,4.63
2023-03-11T22:03:37.822Z,4.87
2023-03-11T22:06:10.704Z,5.10
2023-03-11T22:08:39.051Z,5.50
2023-03-11T22:11:11.750Z,4.63
2023-03-11T22:13:39.712Z,4.60
2023-03-11T22:16:08.277Z,4.70
2023-03-11T22:18:36.466Z,7.87
2023-03-11T22:21:04.780Z,5.20
2023-03-11T22:23:32.945Z,5.27
2023-03-11T22:26:00.928Z,5.40
2023-03-11T22:28:28.979Z,4.63
2023-03-11T22:30:57.001Z,4.77
2023-03-11T22:33:25.077Z,4.33
2023-03-11T22:35:57.196Z,5.17
2023-03-11T22:38:25.280Z,4.40
2023-03-11T22:40:53.353Z,4.87
2023-03-11T22:43:21.318Z,5.03
2023-03-11T22:45:49.442Z,4.63
2023-03-11T22:48:17.569Z,4.87
2023-03-11T22:50:45.730Z,4.80
2023-03-11T22:53:13.953Z,4.87
2023-03-11T22:55:45.379Z,4.47
2023-03-11T22:58:13.484Z,4.47
2023-03-11T23:00:48.471Z,4.50
2023-03-11T23:03:17.161Z,5.17
2023-03-11T23:05:47.067Z,5.00
2023-03-11T23:08:16.771Z,4.93
2023-03-11T23:10:46.025Z,4.97
2023-03-11T23:13:14.586Z,4.47
2023-03-11T23:15:43.644Z,4.57
2023-03-11T23:18:11.772Z,4.40
2023-03-11T23:20:41.545Z,4.53
2023-03-11T23:23:09.980Z,5.30
2023-03-11T23:25:38.124Z,4.53
2023-03-11T23:28:07.007Z,4.60
2023-03-11T23:30:35.126Z,5.00
2023-03-11T23:33:04.217Z,4.40
2023-03-11T23:35:32.616Z,5.00
2023-03-11T23:38:00.700Z,5.03
2023-03-11T23:40:28.714Z,4.90
2023-03-11T23:42:56.662Z,4.47
2023-03-11T23:45:24.609Z,4.73
2023-03-11T23:47:52.522Z,4.30
2023-03-11T23:50:20.389Z,5.00
2023-03-11T23:52:48.377Z,4.83
2023-03-11T23:55:16.247Z,4.70
2023-03-11T23:57:44.180Z,4.67
